Time;durP1;ratioP1;P1;durP2;ratioP2;P2;SDS_P1;SDS_P2;PMS_P1;PMS_P2;Temp;Humidity;BMP_temperature;BMP_pressure;BME280_temperature;BME280_humidity;BME280_pressure;Samples;Min_cycle;Max_cycle;Signal;HPM_P1;HPM_P2
2023/05/13 00:02:09;;;;;;;10.50;6.75;;;;;;;11.61;100.00;102137.84;10397257;28;20033;-69
2023/05/13 00:07:09;;;;;;;11.15;6.22;;;;;;;11.59;100.00;102132.56;10413573;28;20033;-69
2023/05/13 00:12:10;;;;;;;6.85;5.95;;;;;;;11.57;100.00;102133.88;10411306;28;20075;-69
2023/05/13 00:17:11;;;;;;;9.32;6.25;;;;;;;11.58;100.00;102141.09;10404527;28;20064;-68
2023/05/13 00:22:11;;;;;;;12.48;6.63;;;;;;;11.51;100.00;102136.50;10378763;28;20243;-69
2023/05/13 00:27:12;;;;;;;9.13;6.18;;;;;;;11.46;100.00;102141.84;10411780;28;20057;-69
2023/05/13 00:32:13;;;;;;;8.73;6.05;;;;;;;11.47;100.00;102142.69;10412825;28;20041;-69
2023/05/13 00:37:13;;;;;;;9.07;6.60;;;;;;;11.46;100.00;102139.09;10410224;28;20041;-69
2023/05/13 00:42:14;;;;;;;8.40;6.72;;;;;;;11.40;100.00;102140.00;10411619;28;20038;-69
2023/05/13 00:47:14;;;;;;;13.00;7.68;;;;;;;11.23;100.00;102122.38;10392183;28;20037;-69
2023/05/13 00:52:15;;;;;;;9.88;7.03;;;;;;;11.23;100.00;102149.94;10413022;28;20037;-70
2023/05/13 00:57:15;;;;;;;15.95;8.13;;;;;;;10.99;100.00;102122.19;10379372;28;20040;-69
2023/05/13 01:02:28;;;;;;;14.30;7.82;;;;;;;11.08;100.00;102142.88;10414145;28;20037;-69
2023/05/13 01:07:34;;;;;;;13.02;8.55;;;;;;;10.99;100.00;102144.22;10411258;28;20648;-68
2023/05/13 01:12:36;;;;;;;11.57;9.20;;;;;;;10.94;100.00;102146.81;10362062;28;20100;-69
2023/05/13 01:17:51;;;;;;;14.98;8.18;;;;;;;10.88;100.00;102142.22;10377638;28;20038;-70
2023/05/13 01:22:52;;;;;;;11.75;8.23;;;;;;;10.85;100.00;102148.16;10411520;28;20056;-69
2023/05/13 01:27:52;;;;;;;12.80;8.57;;;;;;;10.82;100.00;102149.47;10394534;28;20410;-69
2023/05/13 01:32:53;;;;;;;12.60;7.43;;;;;;;10.79;100.00;102151.81;10376705;28;20101;-69
2023/05/13 01:37:55;;;;;;;12.85;7.72;;;;;;;10.76;100.00;102152.28;10393655;28;20464;-69
2023/05/13 01:42:56;;;;;;;11.50;8.85;;;;;;;10.70;100.00;102151.25;10377895;28;20034;-70
2023/05/13 01:47:56;;;;;;;12.10;7.80;;;;;;;10.66;100.00;102145.34;10394153;28;20042;-69
2023/05/13 01:52:57;;;;;;;11.73;7.97;;;;;;;10.69;100.00;102149.59;10411434;28;20040;-70
2023/05/13 01:57:58;;;;;;;12.50;7.90;;;;;;;10.74;100.00;102141.47;10412682;28;20033;-69
2023/05/13 02:02:58;;;;;;;11.30;7.65;;;;;;;10.72;100.00;102145.53;10416654;28;20084;-70
2023/05/13 02:07:59;;;;;;;9.30;7.50;;;;;;;10.69;100.00;102144.91;10400349;28;20061;-70
2023/05/13 02:12:59;;;;;;;16.42;8.30;;;;;;;10.60;100.00;102137.97;10400729;28;20088;-68
2023/05/13 02:18:00;;;;;;;13.70;9.07;;;;;;;10.59;100.00;102139.06;10401705;28;20046;-69
2023/05/13 02:23:00;;;;;;;13.02;9.82;;;;;;;10.53;100.00;102142.69;10401995;28;20068;-69
2023/05/13 02:28:01;;;;;;;16.83;9.75;;;;;;;10.53;100.00;102148.22;10400949;28;20037;-69
2023/05/13 02:33:01;;;;;;;13.10;9.52;;;;;;;10.47;100.00;102154.59;10384923;28;20034;-70
2023/05/13 02:38:03;;;;;;;14.10;10.70;;;;;;;10.37;100.00;102149.59;10399547;28;20044;-70
2023/05/13 02:43:03;;;;;;;16.05;11.73;;;;;;;10.32;100.00;102154.91;10414925;28;20524;-69
2023/05/13 02:48:04;;;;;;;16.38;12.27;;;;;;;10.28;100.00;102148.97;10416697;28;20038;-70
2023/05/13 02:53:04;;;;;;;18.63;14.18;;;;;;;10.22;100.00;102144.34;10400777;28;20033;-70
2023/05/13 02:58:05;;;;;;;21.63;17.15;;;;;;;10.22;100.00;102144.34;10399661;28;20107;-71
2023/05/13 03:03:05;;;;;;;23.33;15.90;;;;;;;10.20;100.00;102148.41;10399485;28;20034;-67
2023/05/13 03:08:06;;;;;;;21.02;14.70;;;;;;;10.14;100.00;102141.84;10397742;28;20048;-69
2023/05/13 03:13:06;;;;;;;23.08;15.48;;;;;;;10.15;100.00;102146.31;10414389;28;20041;-70
2023/05/13 03:18:07;;;;;;;24.67;17.10;;;;;;;10.15;100.00;102154.56;10381047;28;20037;-69
2023/05/13 03:23:07;;;;;;;20.77;16.70;;;;;;;10.06;100.00;102147.63;10417312;28;20038;-69
2023/05/13 03:28:08;;;;;;;21.88;16.45;;;;;;;10.10;100.00;102155.22;10366204;28;20037;-70
2023/05/13 03:33:08;;;;;;;27.45;16.58;;;;;;;10.09;100.00;102152.69;10415451;28;20053;-70
2023/05/13 03:38:09;;;;;;;22.92;15.95;;;;;;;9.94;100.00;102152.97;10380799;28;20461;-70
2023/05/13 03:43:09;;;;;;;20.73;15.05;;;;;;;9.88;100.00;102149.19;10395043;28;20457;-67
2023/05/13 03:48:10;;;;;;;22.90;16.85;;;;;;;9.82;100.00;102161.06;10364975;28;20049;-68
2023/05/13 03:53:10;;;;;;;20.10;15.77;;;;;;;9.76;100.00;102156.44;10381767;28;20033;-69
2023/05/13 03:58:13;;;;;;;22.60;15.55;;;;;;;9.72;100.00;102162.59;10414892;28;20057;-70
2023/05/13 04:03:15;;;;;;;20.10;14.90;;;;;;;9.74;100.00;102168.72;10414447;28;20037;-69
2023/05/13 04:08:15;;;;;;;19.20;14.60;;;;;;;9.83;100.00;102173.75;10363095;28;20041;-70
2023/05/13 04:13:16;;;;;;;20.83;15.38;;;;;;;9.87;100.00;102179.66;10358328;28;20042;-69
2023/05/13 04:18:16;;;;;;;22.73;16.35;;;;;;;9.86;100.00;102184.34;10373785;28;20044;-70
2023/05/13 04:23:16;;;;;;;25.50;15.35;;;;;;;9.95;100.00;102179.41;10355762;28;20045;-70
2023/05/13 04:28:18;;;;;;;19.88;15.05;;;;;;;9.97;100.00;102187.47;10338705;28;20038;-69
2023/05/13 04:33:18;;;;;;;19.38;15.20;;;;;;;10.01;100.00;102185.97;10355623;28;20044;-70
2023/05/13 04:38:19;;;;;;;28.83;16.02;;;;;;;10.03;100.00;102192.09;10394181;28;20038;-70
2023/05/13 04:43:20;;;;;;;21.63;14.93;;;;;;;10.08;100.00;102184.00;10377014;28;20065;-70
2023/05/13 04:48:20;;;;;;;22.45;15.20;;;;;;;10.11;100.00;102191.84;10395942;28;20044;-70
2023/05/13 04:53:21;;;;;;;20.45;15.15;;;;;;;10.24;100.00;102197.28;10379369;28;20037;-70
2023/05/13 04:58:21;;;;;;;26.05;15.02;;;;;;;10.33;100.00;102206.16;10412893;28;20114;-69
2023/05/13 05:03:22;;;;;;;19.45;14.40;;;;;;;10.43;100.00;102206.50;10410567;28;20033;-69
2023/05/13 05:08:23;;;;;;;22.75;15.55;;;;;;;10.50;100.00;102212.84;10392555;28;20048;-69
2023/05/13 05:13:23;;;;;;;22.10;13.45;;;;;;;10.57;100.00;102222.97;10412043;28;20025;-69
2023/05/13 05:18:24;;;;;;;23.95;14.18;;;;;;;10.68;100.00;102214.81;10384203;28;20462;-67
2023/05/13 05:23:24;;;;;;;19.70;13.63;;;;;;;10.84;100.00;102224.47;10378583;28;20500;-68
2023/05/13 05:28:25;;;;;;;19.10;13.18;;;;;;;10.95;100.00;102220.13;10412017;28;20057;-68
2023/05/13 05:33:26;;;;;;;23.05;13.93;;;;;;;11.05;100.00;102228.75;10412452;28;20037;-69
2023/05/13 05:38:26;;;;;;;20.38;16.15;;;;;;;11.21;100.00;102218.25;10418030;28;20105;-69
2023/05/13 05:43:27;;;;;;;22.75;14.82;;;;;;;11.42;100.00;102219.75;10372313;28;20474;-69
2023/05/13 05:48:27;;;;;;;21.17;13.38;;;;;;;11.63;100.00;102233.09;10378803;28;20118;-69
2023/05/13 05:53:28;;;;;;;20.10;14.23;;;;;;;11.86;100.00;102215.84;10416458;28;20060;-69
2023/05/13 05:58:28;;;;;;;17.98;12.48;;;;;;;12.18;100.00;102228.69;10400174;28;20059;-67
2023/05/13 06:03:29;;;;;;;17.33;12.10;;;;;;;12.43;100.00;102225.81;10418442;28;20056;-70
2023/05/13 06:08:29;;;;;;;14.32;11.55;;;;;;;12.69;100.00;102230.09;10382672;28;20065;-69
2023/05/13 06:13:30;;;;;;;14.57;11.38;;;;;;;12.90;100.00;102221.28;10378967;28;20062;-69
2023/05/13 06:18:30;;;;;;;15.30;11.27;;;;;;;13.09;100.00;102222.03;10360765;28;20644;-69
2023/05/13 06:23:31;;;;;;;15.48;10.88;;;;;;;13.22;100.00;102211.81;10366207;28;20093;-69
2023/05/13 06:28:31;;;;;;;16.63;10.90;;;;;;;13.37;100.00;102206.66;10376148;28;20049;-69
2023/05/13 06:33:32;;;;;;;16.63;10.25;;;;;;;13.53;100.00;102208.72;10410822;28;20056;-69
2023/05/13 06:38:33;;;;;;;12.77;9.20;;;;;;;13.83;100.00;102224.34;10381817;28;20049;-69
2023/05/13 06:43:34;;;;;;;14.00;9.27;;;;;;;14.08;100.00;102215.72;10415897;28;20045;-70
2023/05/13 06:48:34;;;;;;;15.15;9.25;;;;;;;14.18;100.00;102209.56;10383004;28;20101;-69
2023/05/13 06:53:35;;;;;;;13.63;8.43;;;;;;;14.31;100.00;102220.34;10382854;28;20030;-69
2023/05/13 06:58:35;;;;;;;14.05;9.57;;;;;;;14.40;100.00;102217.19;10414146;28;20057;-70
2023/05/13 07:03:36;;;;;;;11.25;7.97;;;;;;;14.48;100.00;102208.47;10416870;28;20072;-70
2023/05/13 07:08:37;;;;;;;15.23;8.90;;;;;;;14.69;100.00;102213.31;10415595;28;20441;-70
2023/05/13 07:13:37;;;;;;;14.50;9.10;;;;;;;14.77;100.00;102205.72;10416758;28;20055;-70
2023/05/13 07:18:38;;;;;;;13.88;8.30;;;;;;;14.82;100.00;102214.97;10398912;28;20038;-68
2023/05/13 07:23:38;;;;;;;11.63;8.45;;;;;;;15.00;100.00;102202.78;10415819;28;20041;-70
2023/05/13 07:28:39;;;;;;;10.07;7.95;;;;;;;15.06;100.00;102210.09;10381131;28;20038;-70
2023/05/13 07:33:39;;;;;;;16.92;8.77;;;;;;;15.30;100.00;102216.31;10395767;28;20041;-69
2023/05/13 07:38:40;;;;;;;11.07;8.18;;;;;;;15.44;100.00;102211.25;10396875;28;20102;-70
2023/05/13 07:43:40;;;;;;;11.05;8.10;;;;;;;15.63;100.00;102219.31;10397374;28;20041;-69
2023/05/13 07:48:41;;;;;;;11.02;8.80;;;;;;;15.74;100.00;102205.31;10397730;28;20078;-68
2023/05/13 07:53:41;;;;;;;8.93;7.07;;;;;;;15.98;100.00;102209.78;10414759;28;20756;-70
2023/05/13 07:58:42;;;;;;;11.50;6.43;;;;;;;16.33;100.00;102204.69;10361445;28;20501;-69
2023/05/13 08:03:42;;;;;;;12.35;7.38;;;;;;;16.77;100.00;102200.13;10410642;28;20061;-69
2023/05/13 08:08:43;;;;;;;9.77;5.35;;;;;;;17.07;100.00;102188.44;10376324;28;20602;-75
2023/05/13 08:13:43;;;;;;;9.18;6.60;;;;;;;17.52;100.00;102185.13;10374173;28;20034;-74
2023/05/13 08:18:44;;;;;;;11.13;5.97;;;;;;;18.06;100.00;102184.00;10326161;28;20041;-80
2023/05/13 08:23:44;;;;;;;9.63;6.53;;;;;;;18.44;100.00;102186.63;10324031;28;20030;-79
2023/05/13 08:28:45;;;;;;;12.15;7.03;;;;;;;18.55;100.00;102185.53;10341449;28;20042;-86
2023/05/13 08:33:47;;;;;;;16.40;6.18;;;;;;;18.85;100.00;102179.19;10358194;28;20042;-80
2023/05/13 08:38:47;;;;;;;6.38;4.65;;;;;;;19.32;100.00;102180.00;10373096;28;20497;-81
2023/05/13 08:43:48;;;;;;;7.80;5.43;;;;;;;19.48;100.00;102167.66;10368260;28;20461;-70
2023/05/13 08:48:49;;;;;;;6.68;3.45;;;;;;;19.41;100.00;102178.31;10392310;28;20033;-70
2023/05/13 08:53:50;;;;;;;6.25;4.10;;;;;;;19.37;100.00;102168.81;10377912;28;20528;-70
2023/05/13 08:58:52;;;;;;;8.25;3.75;;;;;;;19.34;100.00;102164.63;10411222;28;20041;-69
2023/05/13 09:04:00;;;;;;;7.35;3.42;;;;;;;19.59;100.00;102164.84;10412149;28;20037;-69
2023/05/13 09:09:01;;;;;;;8.90;3.65;;;;;;;19.55;100.00;102159.84;10393253;28;20064;-70
2023/05/13 09:14:04;;;;;;;7.63;2.90;;;;;;;19.45;100.00;102167.38;10411587;28;20503;-70
2023/05/13 09:19:05;;;;;;;10.07;3.25;;;;;;;19.58;100.00;102169.59;10379311;28;20518;-70
2023/05/13 09:24:17;;;;;;;11.88;3.60;;;;;;;19.83;100.00;102171.50;10394212;28;20032;-71
2023/05/13 09:29:25;;;;;;;5.97;3.22;;;;;;;20.27;100.00;102153.94;10394380;28;20042;-70
2023/05/13 09:34:27;;;;;;;6.05;3.35;;;;;;;20.60;100.00;102151.50;10377814;28;20075;-69
2023/05/13 09:39:29;;;;;;;6.57;3.63;;;;;;;20.53;100.00;102145.41;10392929;28;20111;-70
2023/05/13 09:44:29;;;;;;;31.85;6.07;;;;;;;20.76;100.00;102158.66;10409261;28;20033;-71
2023/05/13 09:49:30;;;;;;;5.80;3.42;;;;;;;21.12;100.00;102143.50;10377604;28;20038;-70
2023/05/13 09:54:34;;;;;;;7.15;2.92;;;;;;;21.34;100.00;102143.00;10411552;28;20033;-70
2023/05/13 09:59:35;;;;;;;7.57;3.95;;;;;;;21.70;100.00;102139.81;10376967;28;20041;-70
2023/05/13 10:04:35;;;;;;;7.13;4.20;;;;;;;21.74;100.00;102122.09;10393733;28;20033;-71
2023/05/13 10:09:36;;;;;;;9.23;3.22;;;;;;;21.83;100.00;102127.88;10392551;28;20034;-70
2023/05/13 10:14:37;;;;;;;6.63;2.67;;;;;;;22.02;96.49;102118.66;10394655;28;20044;-69
2023/05/13 10:19:37;;;;;;;4.57;2.88;;;;;;;22.23;97.80;102122.88;10394919;28;20089;-70
2023/05/13 10:24:38;;;;;;;8.38;2.95;;;;;;;22.31;92.59;102105.34;10401166;28;20026;-73
2023/05/13 10:29:39;;;;;;;9.20;2.42;;;;;;;22.30;93.11;102080.41;10399298;28;20116;-69
2023/05/13 10:34:39;;;;;;;6.10;2.80;;;;;;;22.73;91.56;102100.72;10380034;28;20045;-72
2023/05/13 10:40:03;;;;;;;6.50;2.47;;;;;;;22.85;87.06;102085.38;10396422;28;20410;-69
2023/05/13 10:45:04;;;;;;;4.88;2.05;;;;;;;23.20;83.47;102088.69;10400392;28;20612;-73
2023/05/13 10:50:06;;;;;;;3.70;2.05;;;;;;;23.41;81.38;102073.06;10398042;28;20033;-75
2023/05/13 10:55:13;;;;;;;3.80;2.38;;;;;;;23.55;78.26;102065.47;10365668;28;20449;-65
2023/05/13 11:00:14;;;;;;;5.82;2.30;;;;;;;23.59;75.56;102062.88;10398444;28;20508;-71
2023/05/13 11:05:19;;;;;;;6.03;2.20;;;;;;;23.62;74.24;102064.22;10380501;28;20048;-72
2023/05/13 11:10:29;;;;;;;8.20;2.45;;;;;;;23.88;74.29;102059.72;10413545;28;20486;-73
2023/05/13 11:15:52;;;;;;;10.48;2.42;;;;;;;24.15;71.80;102050.34;10396831;28;20457;-71
2023/05/13 11:20:52;;;;;;;3.67;2.25;;;;;;;24.36;71.44;102044.22;10397705;28;21115;-71
2023/05/13 11:26:13;;;;;;;6.18;2.40;;;;;;;24.27;66.07;102027.28;10414637;28;20034;-74
2023/05/13 11:31:15;;;;;;;4.90;1.80;;;;;;;23.96;64.68;102024.38;10378577;28;1097110;-73
2023/05/13 11:36:15;;;;;;;3.63;2.22;;;;;;;23.55;67.99;102033.72;10415695;28;20110;-74
2023/05/13 11:41:16;;;;;;;7.88;2.20;;;;;;;24.08;64.06;102015.38;10397551;28;20061;-74
2023/05/13 11:46:21;;;;;;;8.05;2.53;;;;;;;24.77;66.29;102032.75;10398404;28;20034;-74
2023/05/13 11:51:21;;;;;;;3.65;1.80;;;;;;;25.66;64.63;102026.28;10397915;28;20041;-74
2023/05/13 11:56:25;;;;;;;7.18;2.20;;;;;;;25.96;57.88;101999.97;10415170;28;20038;-74
2023/05/13 12:01:26;;;;;;;10.10;2.00;;;;;;;26.41;58.98;102012.03;10398706;28;20033;-73
2023/05/13 12:06:27;;;;;;;3.75;2.05;;;;;;;26.61;55.73;102002.06;10396579;28;20046;-74
2023/05/13 12:11:27;;;;;;;1.75;1.65;;;;;;;27.33;54.00;102000.25;10395238;28;20071;-74
2023/05/13 12:16:28;;;;;;;9.30;2.67;;;;;;;27.51;52.64;102007.47;10395765;28;20037;-74
2023/05/13 12:21:32;;;;;;;7.68;2.03;;;;;;;27.28;51.29;102003.28;10396782;28;20049;-74
2023/05/13 12:26:33;;;;;;;7.68;1.80;;;;;;;27.62;50.88;101996.56;10414725;28;20584;-74
2023/05/13 12:31:33;;;;;;;7.25;2.10;;;;;;;27.97;51.86;101999.97;10414393;28;20046;-74
2023/05/13 12:36:37;;;;;;;6.53;1.88;;;;;;;28.62;52.43;102002.34;10395747;28;20029;-75
2023/05/13 12:41:39;;;;;;;7.43;1.95;;;;;;;28.50;51.43;101999.47;10395485;28;20047;-74
2023/05/13 12:46:53;;;;;;;5.60;1.85;;;;;;;27.82;51.03;102006.22;10395004;28;20196;-73
2023/05/13 12:51:54;;;;;;;7.28;1.90;;;;;;;27.35;46.14;101989.44;10395249;28;20033;-74
2023/05/13 12:56:55;;;;;;;4.78;1.60;;;;;;;27.31;50.81;102017.56;10414312;28;20045;-74
2023/05/13 13:01:56;;;;;;;4.40;1.80;;;;;;;27.49;47.09;101990.00;10413782;28;20034;-73
2023/05/13 13:06:56;;;;;;;8.23;2.00;;;;;;;27.87;49.24;101997.56;10412258;28;20037;-73
2023/05/13 13:11:57;;;;;;;4.65;2.10;;;;;;;28.40;46.77;101988.56;10395203;28;20033;-73
2023/05/13 13:16:57;;;;;;;2.42;1.73;;;;;;;28.81;44.07;101967.78;10411990;28;20041;-74
2023/05/13 13:21:58;;;;;;;5.95;2.05;;;;;;;28.65;43.38;101962.00;10394989;28;20034;-74
2023/05/13 13:26:58;;;;;;;4.95;2.00;;;;;;;28.88;45.26;101979.38;10412410;28;20029;-73
2023/05/13 13:31:59;;;;;;;5.50;2.20;;;;;;;29.13;48.19;101979.41;10378669;28;20108;-74
2023/05/13 13:36:59;;;;;;;2.92;2.05;;;;;;;28.71;46.09;101986.09;10392897;28;20041;-74
2023/05/13 13:42:03;;;;;;;2.75;1.90;;;;;;;28.68;45.78;101969.78;10394009;28;20042;-72
2023/05/13 13:47:03;;;;;;;3.90;2.25;;;;;;;28.71;47.61;101979.56;10394112;28;20045;-74
2023/05/13 13:52:04;;;;;;;5.80;2.17;;;;;;;29.22;46.70;101968.75;10412219;28;20034;-73
2023/05/13 13:57:04;;;;;;;7.45;2.85;;;;;;;29.49;45.30;101952.97;10398534;28;20533;-68
2023/05/13 14:02:05;;;;;;;4.97;2.22;;;;;;;29.33;47.53;101971.91;10386470;28;20037;-73
2023/05/13 14:07:06;;;;;;;6.15;2.15;;;;;;;29.52;46.52;101945.78;10399015;28;20553;-72
2023/05/13 14:12:06;;;;;;;5.30;2.30;;;;;;;29.89;44.80;101960.69;10399374;28;20041;-74
2023/05/13 14:17:07;;;;;;;3.70;2.40;;;;;;;29.06;46.44;101934.56;10399816;28;20033;-73
2023/05/13 14:22:07;;;;;;;6.10;2.42;;;;;;;29.90;49.45;101959.50;10367714;28;20037;-73
2023/05/13 14:27:08;;;;;;;6.95;2.72;;;;;;;29.47;46.63;101951.69;10384647;28;20033;-83
2023/05/13 14:32:08;;;;;;;4.22;2.20;;;;;;;28.98;46.48;101946.88;10384759;28;20057;-72
2023/05/13 14:37:09;;;;;;;4.57;2.35;;;;;;;29.01;46.34;101940.50;10399931;28;20143;-73
2023/05/13 14:42:10;;;;;;;6.70;3.15;;;;;;;28.16;46.76;101937.19;10397373;28;20095;-73
2023/05/13 14:47:10;;;;;;;5.80;2.80;;;;;;;28.41;48.15;101950.56;10415660;28;20490;-71
2023/05/13 14:52:11;;;;;;;7.32;2.95;;;;;;;27.91;47.89;101935.44;10418248;28;20029;-73
2023/05/13 14:57:11;;;;;;;6.20;2.65;;;;;;;28.90;48.51;101947.81;10368371;28;20037;-70
2023/05/13 15:02:13;;;;;;;7.57;2.80;;;;;;;28.90;49.28;101910.97;10418303;28;20029;-72
2023/05/13 15:07:14;;;;;;;5.25;2.50;;;;;;;29.36;48.85;101937.19;10406864;28;20048;-71
2023/05/13 15:12:14;;;;;;;6.15;3.13;;;;;;;28.91;48.65;101943.81;10415586;28;20045;-72
2023/05/13 15:17:15;;;;;;;9.88;2.95;;;;;;;28.82;50.37;101928.94;10398488;28;20041;-71
2023/05/13 15:22:18;;;;;;;7.28;2.97;;;;;;;28.99;50.76;101951.38;10353117;28;20068;-72
2023/05/13 15:27:18;;;;;;;11.52;3.50;;;;;;;28.94;51.78;101954.41;10416163;28;20120;-72
2023/05/13 15:32:19;;;;;;;4.07;3.08;;;;;;;28.91;50.42;101952.31;10398146;28;20048;-72
2023/05/13 15:37:19;;;;;;;4.00;2.88;;;;;;;28.84;51.53;101949.25;10396676;28;20038;-73
2023/05/13 15:42:20;;;;;;;5.95;3.00;;;;;;;28.16;50.79;101942.03;10414495;28;20033;-72
2023/05/13 15:47:20;;;;;;;6.28;2.58;;;;;;;28.23;49.43;101936.59;10414295;28;20037;-68
2023/05/13 15:52:21;;;;;;;4.50;2.60;;;;;;;28.55;49.90;101936.94;10397857;28;20532;-72
2023/05/13 15:57:21;;;;;;;5.35;2.88;;;;;;;28.51;48.27;101931.16;10415332;28;20052;-71
2023/05/13 16:02:22;;;;;;;8.25;4.20;;;;;;;28.01;51.53;101937.00;10414414;28;20064;-69
2023/05/13 16:07:23;;;;;;;6.85;4.03;;;;;;;28.38;51.06;101944.44;10414038;28;20029;-69
2023/05/13 16:12:23;;;;;;;10.25;2.70;;;;;;;28.32;49.69;101928.84;10395210;28;20045;-70
2023/05/13 16:17:23;;;;;;;6.57;2.80;;;;;;;28.66;50.67;101932.47;10378014;28;20037;-70
2023/05/13 16:22:29;;;;;;;8.02;2.65;;;;;;;28.55;49.10;101925.63;10414166;28;20141;-71
2023/05/13 16:27:29;;;;;;;8.18;3.30;;;;;;;28.91;50.72;101932.47;10395480;28;20318;-70
2023/05/13 16:32:30;;;;;;;2.75;1.92;;;;;;;28.81;49.80;101925.25;10395319;28;20140;-69
2023/05/13 16:37:33;;;;;;;5.82;2.60;;;;;;;28.58;48.84;101930.56;10412214;28;20029;-69
2023/05/13 16:42:33;;;;;;;5.57;2.53;;;;;;;27.85;50.17;101931.97;10411917;28;20048;-70
2023/05/13 16:47:34;;;;;;;5.40;2.40;;;;;;;28.12;49.43;101913.56;10393711;28;20049;-82
2023/05/13 16:52:35;;;;;;;11.57;2.92;;;;;;;28.04;51.85;101933.47;10397934;28;20065;-84
2023/05/13 16:57:35;;;;;;;6.95;2.80;;;;;;;28.69;49.54;101923.28;10363355;28;20053;-69
2023/05/13 17:02:36;;;;;;;5.15;2.80;;;;;;;27.56;49.07;101919.56;10410883;28;20431;-69
2023/05/13 17:07:36;;;;;;;7.22;2.55;;;;;;;27.22;52.57;101936.75;10411273;28;20527;-66
2023/05/13 17:12:37;;;;;;;7.43;3.30;;;;;;;25.98;54.15;101931.91;10393858;28;20120;-68
2023/05/13 17:17:37;;;;;;;6.72;3.40;;;;;;;25.46;57.02;101943.97;10411563;28;20036;-69
2023/05/13 17:22:38;;;;;;;8.52;3.42;;;;;;;24.21;59.11;101941.34;10394390;28;20034;-67
2023/05/13 17:27:38;;;;;;;9.48;4.18;;;;;;;23.69;60.54;101966.19;10393316;28;20045;-69
2023/05/13 17:32:39;;;;;;;9.00;3.63;;;;;;;22.70;63.73;101962.97;10416759;28;20045;-69
2023/05/13 17:37:39;;;;;;;6.82;3.25;;;;;;;22.04;67.26;101981.78;10401204;28;20064;-69
2023/05/13 17:42:40;;;;;;;7.13;3.95;;;;;;;21.21;70.39;101998.06;10401372;28;20315;-69
2023/05/13 17:47:40;;;;;;;11.93;4.10;;;;;;;20.54;71.97;101982.81;10401565;28;20042;-69
2023/05/13 17:52:41;;;;;;;6.47;3.90;;;;;;;20.05;77.42;101971.81;10419797;28;20041;-69
2023/05/13 17:57:41;;;;;;;6.43;4.38;;;;;;;19.81;81.39;101994.91;10385510;28;20084;-67
2023/05/13 18:02:42;;;;;;;13.65;5.05;;;;;;;19.46;90.84;102021.88;10419090;28;20034;-68
2023/05/13 18:07:42;;;;;;;12.27;6.35;;;;;;;19.19;98.62;102022.28;10399917;28;20057;-67
2023/05/13 18:12:43;;;;;;;15.93;7.00;;;;;;;18.63;100.00;102023.22;10417851;28;20076;-68
2023/05/13 18:17:43;;;;;;;13.43;7.95;;;;;;;18.35;100.00;102025.50;10400351;28;20433;-68
2023/05/13 18:22:44;;;;;;;9.60;5.68;;;;;;;18.13;100.00;102030.50;10390226;28;20038;-67
2023/05/13 18:27:44;;;;;;;10.13;6.28;;;;;;;17.91;100.00;102028.78;10414709;28;20053;-67
2023/05/13 18:32:45;;;;;;;8.90;6.45;;;;;;;17.73;100.00;102035.66;10382032;28;20041;-68
2023/05/13 18:37:45;;;;;;;10.57;5.97;;;;;;;17.44;100.00;102035.28;10397964;28;20457;-68
2023/05/13 18:42:46;;;;;;;7.10;5.68;;;;;;;16.55;100.00;101936.91;10392155;28;20025;-69
2023/05/13 18:47:46;;;;;;;7.97;5.78;;;;;;;17.05;100.00;102052.38;10388547;28;20033;-67
2023/05/13 18:52:47;;;;;;;9.35;6.18;;;;;;;16.76;100.00;102054.63;10418767;28;20057;-65
2023/05/13 18:57:48;;;;;;;8.40;5.82;;;;;;;16.49;100.00;102054.72;10417715;28;20034;-69
2023/05/13 19:02:49;;;;;;;9.63;6.05;;;;;;;16.22;100.00;102061.16;10398464;28;20494;-67
2023/05/13 19:07:49;;;;;;;8.32;5.35;;;;;;;16.02;100.00;102070.16;10415433;28;20049;-68
2023/05/13 19:12:50;;;;;;;12.63;5.63;;;;;;;15.79;100.00;102074.03;10416029;28;20037;-68
2023/05/13 19:17:51;;;;;;;9.95;5.45;;;;;;;15.62;100.00;102084.34;10416806;28;20045;-67
2023/05/13 19:22:52;;;;;;;14.52;6.05;;;;;;;15.45;100.00;102079.72;10382469;28;20445;-68
2023/05/13 19:27:53;;;;;;;11.68;6.05;;;;;;;15.31;100.00;102083.97;10394992;28;20048;-71
2023/05/13 19:32:53;;;;;;;10.43;6.22;;;;;;;15.01;100.00;102068.56;10393058;28;20048;-69
2023/05/13 19:37:54;;;;;;;10.73;5.82;;;;;;;14.96;100.00;102087.91;10373368;28;20082;-68
2023/05/13 19:42:55;;;;;;;7.68;5.45;;;;;;;14.85;100.00;102088.84;10414099;28;20044;-68
2023/05/13 19:47:55;;;;;;;9.23;5.32;;;;;;;14.77;100.00;102089.28;10396824;28;20045;-68
2023/05/13 19:52:56;;;;;;;15.98;6.28;;;;;;;14.68;100.00;102091.63;10414648;28;20049;-69
2023/05/13 19:57:56;;;;;;;15.18;6.30;;;;;;;14.65;100.00;102092.13;10414855;28;20029;-68
2023/05/13 20:02:57;;;;;;;12.32;5.50;;;;;;;14.67;100.00;102088.00;10414709;28;20306;-69
2023/05/13 20:07:57;;;;;;;8.57;5.43;;;;;;;14.64;100.00;102091.28;10414413;28;20042;-68
2023/05/13 20:12:58;;;;;;;11.13;6.00;;;;;;;14.60;100.00;102101.19;10414749;28;20072;-70
2023/05/13 20:17:58;;;;;;;9.95;6.28;;;;;;;14.50;100.00;102089.91;10395857;28;20218;-69
2023/05/13 20:22:59;;;;;;;9.88;6.85;;;;;;;14.42;100.00;102087.56;10414366;28;20041;-69
2023/05/13 20:27:59;;;;;;;8.90;5.25;;;;;;;14.28;100.00;102076.81;10395091;28;20042;-69
2023/05/13 20:33:00;;;;;;;8.48;5.30;;;;;;;14.09;100.00;102072.56;10395158;28;20057;-69
2023/05/13 20:38:01;;;;;;;8.27;5.65;;;;;;;13.96;100.00;102081.19;10394403;28;20044;-68
2023/05/13 20:43:02;;;;;;;9.95;5.35;;;;;;;13.81;100.00;102071.50;10411083;28;20516;-69
2023/05/13 20:48:02;;;;;;;12.23;6.00;;;;;;;13.70;100.00;102075.13;10411946;28;20029;-69
2023/05/13 20:53:03;;;;;;;12.90;5.97;;;;;;;13.53;100.00;102064.84;10413154;28;20038;-69
2023/05/13 20:58:03;;;;;;;13.23;5.82;;;;;;;13.43;100.00;102067.38;10394309;28;20045;-68
2023/05/13 21:03:04;;;;;;;9.38;5.78;;;;;;;13.34;100.00;102066.09;10394112;28;20041;-69
2023/05/13 21:08:04;;;;;;;12.15;6.03;;;;;;;13.20;100.00;102053.59;10381989;28;20037;-69
2023/05/13 21:13:05;;;;;;;8.95;5.82;;;;;;;13.19;100.00;102074.88;10393457;28;20065;-69
2023/05/13 21:18:05;;;;;;;10.00;5.95;;;;;;;13.06;100.00;102081.50;10393625;28;20041;-69
2023/05/13 21:23:06;;;;;;;9.75;5.75;;;;;;;12.94;100.00;102066.84;10412436;28;20040;-69
2023/05/13 21:28:06;;;;;;;12.23;6.10;;;;;;;12.82;100.00;102069.63;10393188;28;20049;-69
2023/05/13 21:33:07;;;;;;;9.80;6.45;;;;;;;12.69;100.00;102054.13;10410753;28;21095;-70
2023/05/13 21:38:08;;;;;;;12.82;6.45;;;;;;;12.69;100.00;102072.59;10390714;28;20042;-69
2023/05/13 21:43:09;;;;;;;13.25;6.35;;;;;;;12.58;100.00;102070.69;10392895;28;20489;-70
2023/05/13 21:48:11;;;;;;;16.45;6.30;;;;;;;12.55;100.00;102063.72;10377818;28;20046;-70
2023/05/13 21:53:12;;;;;;;13.82;7.43;;;;;;;12.48;100.00;102061.03;10411925;28;20037;-70
2023/05/13 21:58:12;;;;;;;15.15;7.13;;;;;;;12.24;100.00;102048.28;10392709;28;20045;-69
2023/05/13 22:03:13;;;;;;;16.20;7.20;;;;;;;12.14;100.00;102051.63;10410498;28;20034;-69
2023/05/13 22:08:13;;;;;;;14.05;6.88;;;;;;;12.11;100.00;102054.84;10365496;28;20049;-69
2023/05/13 22:13:14;;;;;;;12.35;7.05;;;;;;;12.06;100.00;102058.31;10410201;28;20038;-69
2023/05/13 22:18:14;;;;;;;13.02;7.20;;;;;;;12.06;100.00;102063.84;10397795;28;20506;-69
2023/05/13 22:23:15;;;;;;;11.88;7.72;;;;;;;12.05;100.00;102048.38;10418634;28;20486;-70
2023/05/13 22:28:15;;;;;;;13.85;7.68;;;;;;;12.03;100.00;102055.19;10372730;28;20109;-70
2023/05/13 22:33:16;;;;;;;15.50;7.95;;;;;;;11.99;100.00;102048.44;10399780;28;20034;-70
2023/05/13 22:38:17;;;;;;;15.98;7.88;;;;;;;11.60;100.00;101990.00;10365751;28;20060;-70
2023/05/13 22:43:17;;;;;;;15.27;7.20;;;;;;;11.88;100.00;102045.41;10399391;28;20049;-70